CPA314 VHHH-ZGHA
Flight info
| Callsign | CPA314 |
|---|---|
| Flight time | 1h 11m |
| Altitude | 36100 |
| Route | BEKOL A461 YIN/K0898S1070 A461 MEXON W616 UKLUK |
| Aircraft | B77W/H-SDE1E2E3FGHIJ2J3J4J5M1RWXY/LB1D1 |
Departure
| Time | 2026-04-21 03:06 |
|---|---|
| Airport | Hong Kong International Airport (VHHH) |
Arrival
| Time | 2026-04-21 04:17 |
|---|---|
| Airport | Changsha Huanghua International Airport (ZGHA) |
| Time | Latitude | Longitude | Altitude | Speed | Heading |
|---|---|---|---|---|---|
| 2026-04-21 02:43 | 22.31509 | 113.92486 | 37 ft | 0 kts | 206° |
| 2026-04-21 02:58 | 22.31527 | 113.92496 | 37 ft | 4 kts | 206° |
| 2026-04-21 02:58 | 22.31551 | 113.92508 | 37 ft | 4 kts | 206° |
| 2026-04-21 02:58 | 22.31575 | 113.92522 | 36 ft | 4 kts | 224° |
| 2026-04-21 02:59 | 22.31586 | 113.92543 | 37 ft | 4 kts | 280° |
| 2026-04-21 02:59 | 22.31579 | 113.92564 | 37 ft | 4 kts | 296° |
| 2026-04-21 02:59 | 22.31568 | 113.92588 | 37 ft | 2 kts | 296° |
| 2026-04-21 02:59 | 22.31567 | 113.92590 | 37 ft | 0 kts | 296° |
| 2026-04-21 03:01 | 22.31567 | 113.92589 | 37 ft | 0 kts | 296° |
| 2026-04-21 03:02 | 22.31569 | 113.92586 | 37 ft | 1 kts | 296° |
| 2026-04-21 03:02 | 22.31578 | 113.92566 | 37 ft | 6 kts | 296° |
| 2026-04-21 03:02 | 22.31605 | 113.92511 | 36 ft | 10 kts | 306° |
| 2026-04-21 03:02 | 22.31664 | 113.92498 | 37 ft | 10 kts | 34° |
| 2026-04-21 03:03 | 22.31702 | 113.92559 | 37 ft | 10 kts | 68° |
| 2026-04-21 03:03 | 22.31726 | 113.92630 | 37 ft | 10 kts | 70° |
| 2026-04-21 03:03 | 22.31749 | 113.92701 | 37 ft | 10 kts | 71° |
| 2026-04-21 03:03 | 22.31771 | 113.92771 | 37 ft | 10 kts | 71° |
| 2026-04-21 03:04 | 22.31815 | 113.92822 | 37 ft | 10 kts | 11° |
| 2026-04-21 03:04 | 22.31883 | 113.92804 | 37 ft | 10 kts | 339° |
| 2026-04-21 03:04 | 22.31949 | 113.92777 | 38 ft | 10 kts | 340° |
| 2026-04-21 03:04 | 22.32013 | 113.92745 | 39 ft | 10 kts | 315° |
| 2026-04-21 03:05 | 22.32023 | 113.92690 | 39 ft | 4 kts | 259° |
| 2026-04-21 03:05 | 22.31999 | 113.92616 | 39 ft | 25 kts | 250° |
| 2026-04-21 03:05 | 22.31857 | 113.92174 | 38 ft | 103 kts | 250° |
| 2026-04-21 03:05 | 22.31536 | 113.91185 | 41 ft | 172 kts | 251° |
| 2026-04-21 03:06 | 22.31113 | 113.89897 | 570 ft | 186 kts | 250° |
| 2026-04-21 03:06 | 22.30696 | 113.88548 | 1384 ft | 191 kts | 247° |
| 2026-04-21 03:06 | 22.30264 | 113.87209 | 2257 ft | 187 kts | 248° |
| 2026-04-21 03:06 | 22.29836 | 113.85842 | 2862 ft | 200 kts | 247° |
| 2026-04-21 03:07 | 22.29344 | 113.84343 | 3161 ft | 230 kts | 247° |
| 2026-04-21 03:07 | 22.28774 | 113.82622 | 3539 ft | 252 kts | 247° |
| 2026-04-21 03:07 | 22.28179 | 113.80799 | 4330 ft | 263 kts | 247° |
| 2026-04-21 03:07 | 22.27581 | 113.78937 | 5292 ft | 264 kts | 248° |
| 2026-04-21 03:08 | 22.26968 | 113.77036 | 6105 ft | 270 kts | 248° |
| 2026-04-21 03:08 | 22.26364 | 113.75148 | 7155 ft | 266 kts | 248° |
| 2026-04-21 03:08 | 22.25469 | 113.73389 | 7824 ft | 271 kts | 223° |
| 2026-04-21 03:08 | 22.23918 | 113.72252 | 8602 ft | 272 kts | 211° |
| 2026-04-21 03:09 | 22.22212 | 113.71403 | 9000 ft | 277 kts | 194° |
| 2026-04-21 03:09 | 22.20291 | 113.71436 | 9563 ft | 282 kts | 170° |
| 2026-04-21 03:09 | 22.18408 | 113.72158 | 10244 ft | 293 kts | 160° |
| 2026-04-21 03:09 | 22.16464 | 113.73066 | 10547 ft | 318 kts | 160° |
| 2026-04-21 03:10 | 22.14330 | 113.74059 | 10777 ft | 348 kts | 160° |
| 2026-04-21 03:10 | 22.12070 | 113.75191 | 11026 ft | 371 kts | 152° |
| 2026-04-21 03:10 | 22.09965 | 113.76948 | 11636 ft | 387 kts | 141° |
| 2026-04-21 03:10 | 22.07957 | 113.78917 | 12433 ft | 390 kts | 136° |
| 2026-04-21 03:11 | 22.06418 | 113.81356 | 13123 ft | 408 kts | 115° |
| 2026-04-21 03:11 | 22.05668 | 113.84321 | 13968 ft | 412 kts | 102° |
| 2026-04-21 03:11 | 22.05133 | 113.87401 | 14663 ft | 420 kts | 103° |
| 2026-04-21 03:11 | 22.04554 | 113.90498 | 15514 ft | 421 kts | 101° |
| 2026-04-21 03:12 | 22.04398 | 113.93656 | 16148 ft | 428 kts | 83° |
| 2026-04-21 03:12 | 22.05251 | 113.96751 | 16911 ft | 431 kts | 64° |
| 2026-04-21 03:12 | 22.06570 | 113.99640 | 17706 ft | 436 kts | 63° |
| 2026-04-21 03:12 | 22.07895 | 114.02590 | 18521 ft | 439 kts | 64° |
| 2026-04-21 03:13 | 22.09194 | 114.05604 | 19209 ft | 444 kts | 64° |
| 2026-04-21 03:13 | 22.10487 | 114.08645 | 19857 ft | 446 kts | 64° |
| 2026-04-21 03:13 | 22.12143 | 114.11489 | 20317 ft | 452 kts | 46° |
| 2026-04-21 03:13 | 22.14587 | 114.13609 | 20892 ft | 450 kts | 30° |
| 2026-04-21 03:14 | 22.17280 | 114.15386 | 21453 ft | 457 kts | 30° |
| 2026-04-21 03:14 | 22.19939 | 114.17247 | 22065 ft | 462 kts | 32° |
| 2026-04-21 03:14 | 22.22622 | 114.19191 | 22717 ft | 465 kts | 32° |
| 2026-04-21 03:14 | 22.25451 | 114.20839 | 23130 ft | 466 kts | 17° |
| 2026-04-21 03:15 | 22.28641 | 114.21455 | 23617 ft | 465 kts | 358° |
| 2026-04-21 03:15 | 22.31866 | 114.21337 | 24090 ft | 465 kts | 355° |
| 2026-04-21 03:15 | 22.35113 | 114.21232 | 24627 ft | 468 kts | 356° |
| 2026-04-21 03:15 | 22.38387 | 114.21189 | 25179 ft | 470 kts | 356° |
| 2026-04-21 03:16 | 22.41667 | 114.21167 | 25711 ft | 470 kts | 355° |
| 2026-04-21 03:16 | 22.44890 | 114.20656 | 26003 ft | 470 kts | 339° |
| 2026-04-21 03:16 | 22.47772 | 114.19144 | 26447 ft | 466 kts | 321° |
| 2026-04-21 03:16 | 22.50238 | 114.16905 | 26938 ft | 462 kts | 316° |
| 2026-04-21 03:17 | 22.52713 | 114.14642 | 27375 ft | 468 kts | 317° |
| 2026-04-21 03:17 | 22.55347 | 114.12555 | 27860 ft | 474 kts | 326° |
| 2026-04-21 03:17 | 22.58314 | 114.10948 | 28359 ft | 479 kts | 332° |
| 2026-04-21 03:17 | 22.61374 | 114.09476 | 28801 ft | 482 kts | 333° |
| 2026-04-21 03:18 | 22.64457 | 114.08004 | 29280 ft | 484 kts | 332° |
| 2026-04-21 03:18 | 22.67541 | 114.06498 | 29766 ft | 485 kts | 332° |
| 2026-04-21 03:18 | 22.70602 | 114.04961 | 30218 ft | 484 kts | 331° |
| 2026-04-21 03:18 | 22.73661 | 114.03400 | 30590 ft | 485 kts | 331° |
| 2026-04-21 03:19 | 22.76710 | 114.01835 | 31048 ft | 484 kts | 330° |
| 2026-04-21 03:19 | 22.79711 | 114.00289 | 31580 ft | 482 kts | 330° |
| 2026-04-21 03:19 | 22.82731 | 113.98734 | 32173 ft | 478 kts | 330° |
| 2026-04-21 03:19 | 22.85737 | 113.97188 | 33936 ft | 475 kts | 334° |
| 2026-04-21 03:20 | 22.88718 | 113.95658 | 34507 ft | 470 kts | 330° |
| 2026-04-21 03:20 | 22.91632 | 113.94155 | 33893 ft | 467 kts | 330° |
| 2026-04-21 03:20 | 22.94577 | 113.92622 | 34114 ft | 471 kts | 330° |
| 2026-04-21 03:20 | 22.97529 | 113.91082 | 34419 ft | 470 kts | 330° |
| 2026-04-21 03:21 | 23.00481 | 113.89544 | 34817 ft | 469 kts | 330° |
| 2026-04-21 03:21 | 23.03413 | 113.88017 | 35331 ft | 464 kts | 330° |
| 2026-04-21 03:21 | 23.06314 | 113.86507 | 35836 ft | 460 kts | 330° |
| 2026-04-21 03:21 | 23.09226 | 113.85013 | 35937 ft | 466 kts | 332° |
| 2026-04-21 03:22 | 23.15286 | 113.82541 | 35950 ft | 465 kts | 335° |
| 2026-04-21 03:22 | 23.21364 | 113.80198 | 35941 ft | 461 kts | 335° |
| 2026-04-21 03:23 | 23.27407 | 113.77845 | 35940 ft | 460 kts | 335° |
| 2026-04-21 03:23 | 23.33405 | 113.75485 | 35946 ft | 460 kts | 335° |
| 2026-04-21 03:24 | 23.39445 | 113.73100 | 35937 ft | 462 kts | 335° |
| 2026-04-21 03:24 | 23.45461 | 113.70724 | 35940 ft | 462 kts | 335° |
| 2026-04-21 03:25 | 23.51526 | 113.68325 | 35943 ft | 464 kts | 335° |
| 2026-04-21 03:25 | 23.57596 | 113.65925 | 35967 ft | 462 kts | 335° |
| 2026-04-21 03:26 | 23.63602 | 113.63548 | 36026 ft | 462 kts | 335° |
| 2026-04-21 03:26 | 23.69629 | 113.61160 | 36031 ft | 461 kts | 335° |
| 2026-04-21 03:27 | 23.75674 | 113.58762 | 36059 ft | 462 kts | 335° |
| 2026-04-21 03:27 | 23.81725 | 113.56356 | 36044 ft | 462 kts | 335° |
| 2026-04-21 03:28 | 23.87759 | 113.53959 | 36031 ft | 461 kts | 335° |
| 2026-04-21 03:28 | 23.93748 | 113.51581 | 36025 ft | 460 kts | 335° |
| 2026-04-21 03:29 | 23.99767 | 113.49174 | 36037 ft | 458 kts | 335° |
| 2026-04-21 03:29 | 24.05761 | 113.46787 | 36052 ft | 458 kts | 335° |
| 2026-04-21 03:30 | 24.11781 | 113.44376 | 36048 ft | 460 kts | 335° |
| 2026-04-21 03:30 | 24.17924 | 113.42379 | 35978 ft | 460 kts | 344° |
| 2026-04-21 03:31 | 24.24154 | 113.41590 | 35813 ft | 446 kts | 353° |
| 2026-04-21 03:31 | 24.27240 | 113.41668 | 35595 ft | 439 kts | 356° |
| 2026-04-21 03:31 | 24.30272 | 113.41822 | 35255 ft | 433 kts | 356° |
| 2026-04-21 03:32 | 24.33283 | 113.41951 | 34773 ft | 432 kts | 355° |
| 2026-04-21 03:32 | 24.36257 | 113.42050 | 34172 ft | 434 kts | 355° |
| 2026-04-21 03:32 | 24.39316 | 113.42128 | 33363 ft | 441 kts | 355° |
| 2026-04-21 03:32 | 24.42395 | 113.42204 | 32753 ft | 442 kts | 355° |
| 2026-04-21 03:33 | 24.45484 | 113.42289 | 32234 ft | 445 kts | 355° |
| 2026-04-21 03:33 | 24.48522 | 113.42361 | 31849 ft | 438 kts | 355° |
| 2026-04-21 03:33 | 24.51576 | 113.42437 | 31195 ft | 441 kts | 356° |
| 2026-04-21 03:33 | 24.54651 | 113.42526 | 30570 ft | 443 kts | 356° |
| 2026-04-21 03:34 | 24.57735 | 113.42623 | 29967 ft | 443 kts | 356° |
| 2026-04-21 03:34 | 24.59779 | 113.42688 | 29483 ft | 444 kts | 356° |
| 2026-04-21 03:34 | 24.63920 | 113.42813 | 28490 ft | 446 kts | 356° |
| 2026-04-21 03:34 | 24.67051 | 113.42907 | 27663 ft | 451 kts | 359° |
| 2026-04-21 03:35 | 24.69131 | 113.43016 | 27450 ft | 447 kts | 358° |
| 2026-04-21 03:35 | 24.72238 | 113.43134 | 27267 ft | 448 kts | 357° |
| 2026-04-21 03:35 | 24.75339 | 113.43211 | 27142 ft | 455 kts | 356° |
| 2026-04-21 03:35 | 24.78520 | 113.43279 | 27126 ft | 456 kts | 356° |
| 2026-04-21 03:36 | 24.81686 | 113.43352 | 27081 ft | 451 kts | 357° |
| 2026-04-21 03:36 | 24.85834 | 113.43460 | 26743 ft | 450 kts | 357° |
| 2026-04-21 03:36 | 24.87955 | 113.43518 | 26546 ft | 452 kts | 357° |
| 2026-04-21 03:36 | 24.91068 | 113.43606 | 26542 ft | 452 kts | 357° |
| 2026-04-21 03:37 | 24.94227 | 113.43699 | 26545 ft | 454 kts | 357° |
| 2026-04-21 03:37 | 24.97383 | 113.43790 | 26542 ft | 454 kts | 357° |
| 2026-04-21 03:37 | 25.00546 | 113.43883 | 26530 ft | 454 kts | 357° |
| 2026-04-21 03:37 | 25.03709 | 113.43975 | 26530 ft | 453 kts | 357° |
| 2026-04-21 03:38 | 25.06864 | 113.44067 | 26540 ft | 453 kts | 357° |
| 2026-04-21 03:38 | 25.10022 | 113.44158 | 26537 ft | 453 kts | 357° |
| 2026-04-21 03:38 | 25.13171 | 113.44250 | 26538 ft | 452 kts | 357° |
| 2026-04-21 03:38 | 25.16327 | 113.44347 | 26530 ft | 455 kts | 357° |
| 2026-04-21 03:39 | 25.19457 | 113.44436 | 26538 ft | 454 kts | 357° |
| 2026-04-21 03:39 | 25.22618 | 113.44524 | 26555 ft | 455 kts | 356° |
| 2026-04-21 03:39 | 25.25783 | 113.44613 | 26530 ft | 455 kts | 356° |
| 2026-04-21 03:39 | 25.28945 | 113.44701 | 26542 ft | 454 kts | 356° |
| 2026-04-21 03:40 | 25.32107 | 113.44790 | 26551 ft | 454 kts | 356° |
| 2026-04-21 03:40 | 25.35272 | 113.44884 | 26536 ft | 454 kts | 356° |
| 2026-04-21 03:40 | 25.38392 | 113.44978 | 26547 ft | 453 kts | 356° |
| 2026-04-21 03:40 | 25.41538 | 113.45073 | 26543 ft | 453 kts | 356° |
| 2026-04-21 03:41 | 25.44692 | 113.45166 | 26532 ft | 452 kts | 356° |
| 2026-04-21 03:41 | 25.47838 | 113.45257 | 26529 ft | 451 kts | 356° |
| 2026-04-21 03:41 | 25.50972 | 113.45349 | 26552 ft | 450 kts | 356° |
| 2026-04-21 03:41 | 25.54120 | 113.45437 | 26546 ft | 452 kts | 356° |
| 2026-04-21 03:42 | 25.57261 | 113.45524 | 26541 ft | 452 kts | 356° |
| 2026-04-21 03:42 | 25.60416 | 113.45619 | 26549 ft | 452 kts | 356° |
| 2026-04-21 03:42 | 25.63510 | 113.45715 | 26525 ft | 449 kts | 356° |
| 2026-04-21 03:42 | 25.66624 | 113.45811 | 26459 ft | 442 kts | 356° |
| 2026-04-21 03:43 | 25.69683 | 113.45902 | 26328 ft | 438 kts | 356° |
| 2026-04-21 03:43 | 25.72732 | 113.45989 | 26008 ft | 439 kts | 356° |
| 2026-04-21 03:43 | 25.75786 | 113.46080 | 25674 ft | 439 kts | 356° |
| 2026-04-21 03:43 | 25.78857 | 113.46167 | 25328 ft | 441 kts | 357° |
| 2026-04-21 03:44 | 25.81944 | 113.46253 | 24953 ft | 444 kts | 357° |
| 2026-04-21 03:44 | 25.85049 | 113.46347 | 24775 ft | 446 kts | 357° |
| 2026-04-21 03:44 | 25.88146 | 113.46439 | 24757 ft | 445 kts | 357° |
| 2026-04-21 03:44 | 25.91239 | 113.46534 | 24681 ft | 445 kts | 358° |
| 2026-04-21 03:45 | 25.94301 | 113.46636 | 24641 ft | 443 kts | 358° |
| 2026-04-21 03:45 | 25.97397 | 113.46732 | 24595 ft | 444 kts | 357° |
| 2026-04-21 03:45 | 26.00500 | 113.46823 | 24565 ft | 445 kts | 357° |
| 2026-04-21 03:45 | 26.03557 | 113.46914 | 24568 ft | 445 kts | 357° |
| 2026-04-21 03:46 | 26.06647 | 113.47012 | 24518 ft | 443 kts | 358° |
| 2026-04-21 03:46 | 26.09711 | 113.47112 | 24571 ft | 441 kts | 357° |
| 2026-04-21 03:46 | 26.12795 | 113.47202 | 24555 ft | 442 kts | 357° |
| 2026-04-21 03:46 | 26.15887 | 113.47292 | 24559 ft | 443 kts | 357° |
| 2026-04-21 03:47 | 26.18981 | 113.47387 | 24573 ft | 445 kts | 357° |
| 2026-04-21 03:47 | 26.22079 | 113.47483 | 24570 ft | 446 kts | 357° |
| 2026-04-21 03:47 | 26.25193 | 113.47580 | 24565 ft | 447 kts | 357° |
| 2026-04-21 03:47 | 26.28278 | 113.47676 | 24557 ft | 448 kts | 357° |
| 2026-04-21 03:48 | 26.31396 | 113.47775 | 24560 ft | 448 kts | 357° |
| 2026-04-21 03:48 | 26.34519 | 113.47870 | 24568 ft | 448 kts | 357° |
| 2026-04-21 03:48 | 26.37637 | 113.47967 | 24556 ft | 448 kts | 357° |
| 2026-04-21 03:48 | 26.40754 | 113.48065 | 24560 ft | 448 kts | 357° |
| 2026-04-21 03:49 | 26.43866 | 113.48163 | 24562 ft | 447 kts | 357° |
| 2026-04-21 03:49 | 26.46993 | 113.48260 | 24563 ft | 447 kts | 357° |
| 2026-04-21 03:49 | 26.50100 | 113.48358 | 24563 ft | 446 kts | 357° |
| 2026-04-21 03:49 | 26.53204 | 113.48454 | 24564 ft | 446 kts | 357° |
| 2026-04-21 03:50 | 26.56304 | 113.48549 | 24567 ft | 445 kts | 357° |
| 2026-04-21 03:50 | 26.59362 | 113.48643 | 24589 ft | 446 kts | 357° |
| 2026-04-21 03:50 | 26.62480 | 113.48741 | 24561 ft | 447 kts | 357° |
| 2026-04-21 03:50 | 26.65593 | 113.48838 | 24581 ft | 448 kts | 357° |
| 2026-04-21 03:51 | 26.68720 | 113.48935 | 24572 ft | 448 kts | 357° |
| 2026-04-21 03:51 | 26.71789 | 113.48902 | 24562 ft | 444 kts | 353° |
| 2026-04-21 03:51 | 26.74872 | 113.48700 | 24552 ft | 443 kts | 352° |
| 2026-04-21 03:51 | 26.77931 | 113.48438 | 24550 ft | 441 kts | 350° |
| 2026-04-21 03:52 | 26.80965 | 113.48088 | 24569 ft | 436 kts | 350° |
| 2026-04-21 03:52 | 26.83983 | 113.47783 | 24326 ft | 434 kts | 351° |
| 2026-04-21 03:52 | 26.87004 | 113.47515 | 23869 ft | 436 kts | 351° |
| 2026-04-21 03:52 | 26.89976 | 113.47286 | 23340 ft | 431 kts | 352° |
| 2026-04-21 03:53 | 26.92972 | 113.47071 | 22780 ft | 431 kts | 353° |
| 2026-04-21 03:53 | 26.95967 | 113.46856 | 22236 ft | 429 kts | 352° |
| 2026-04-21 03:53 | 26.98948 | 113.46641 | 21705 ft | 428 kts | 353° |
| 2026-04-21 03:53 | 27.01906 | 113.46421 | 21176 ft | 425 kts | 353° |
| 2026-04-21 03:54 | 27.04849 | 113.46194 | 20662 ft | 423 kts | 353° |
| 2026-04-21 03:54 | 27.07748 | 113.45967 | 20143 ft | 421 kts | 353° |
| 2026-04-21 03:54 | 27.10662 | 113.45737 | 19629 ft | 419 kts | 353° |
| 2026-04-21 03:54 | 27.13589 | 113.45503 | 19086 ft | 419 kts | 353° |
| 2026-04-21 03:55 | 27.16496 | 113.45273 | 18567 ft | 418 kts | 353° |
| 2026-04-21 03:55 | 27.19392 | 113.45045 | 18019 ft | 417 kts | 353° |
| 2026-04-21 03:55 | 27.22278 | 113.44771 | 17465 ft | 411 kts | 350° |
| 2026-04-21 03:55 | 27.24989 | 113.44244 | 16841 ft | 391 kts | 343° |
| 2026-04-21 03:56 | 27.27607 | 113.43522 | 16063 ft | 382 kts | 343° |
| 2026-04-21 03:56 | 27.30167 | 113.42800 | 15181 ft | 376 kts | 342° |
| 2026-04-21 03:56 | 27.32715 | 113.42072 | 14273 ft | 383 kts | 343° |
| 2026-04-21 03:56 | 27.35310 | 113.41343 | 13798 ft | 383 kts | 343° |
| 2026-04-21 03:57 | 27.37883 | 113.40624 | 13491 ft | 377 kts | 343° |
| 2026-04-21 03:57 | 27.40376 | 113.39931 | 13143 ft | 370 kts | 343° |
| 2026-04-21 03:57 | 27.42872 | 113.39237 | 12700 ft | 367 kts | 343° |
| 2026-04-21 03:57 | 27.45361 | 113.38548 | 12200 ft | 366 kts | 343° |
| 2026-04-21 03:58 | 27.47843 | 113.37854 | 11787 ft | 365 kts | 343° |
| 2026-04-21 03:58 | 27.50278 | 113.37167 | 11503 ft | 356 kts | 343° |
| 2026-04-21 03:58 | 27.52620 | 113.36516 | 11409 ft | 339 kts | 343° |
| 2026-04-21 03:58 | 27.54859 | 113.35906 | 11319 ft | 325 kts | 343° |
| 2026-04-21 03:59 | 27.56992 | 113.35314 | 11156 ft | 304 kts | 343° |
| 2026-04-21 03:59 | 27.58992 | 113.34763 | 10664 ft | 298 kts | 342° |
| 2026-04-21 03:59 | 27.61001 | 113.34207 | 10158 ft | 294 kts | 342° |
| 2026-04-21 04:00 | 27.65019 | 113.33085 | 9390 ft | 298 kts | 342° |
| 2026-04-21 04:00 | 27.66999 | 113.32536 | 9033 ft | 295 kts | 342° |
| 2026-04-21 04:00 | 27.68992 | 113.31985 | 8677 ft | 294 kts | 342° |
| 2026-04-21 04:00 | 27.70971 | 113.31429 | 8329 ft | 293 kts | 342° |
| 2026-04-21 04:01 | 27.72953 | 113.30877 | 7989 ft | 293 kts | 342° |
| 2026-04-21 04:01 | 27.74928 | 113.30324 | 7643 ft | 293 kts | 342° |
| 2026-04-21 04:01 | 27.76913 | 113.29776 | 7301 ft | 295 kts | 342° |
| 2026-04-21 04:01 | 27.78920 | 113.29190 | 6988 ft | 302 kts | 341° |
| 2026-04-21 04:02 | 27.80976 | 113.28605 | 6754 ft | 303 kts | 343° |
| 2026-04-21 04:02 | 27.83001 | 113.28086 | 6589 ft | 294 kts | 343° |
| 2026-04-21 04:02 | 27.84957 | 113.27557 | 6518 ft | 284 kts | 342° |
| 2026-04-21 04:02 | 27.86848 | 113.27025 | 6347 ft | 279 kts | 343° |
| 2026-04-21 04:03 | 27.88705 | 113.26518 | 6194 ft | 271 kts | 342° |
| 2026-04-21 04:03 | 27.90505 | 113.25994 | 6068 ft | 262 kts | 342° |
| 2026-04-21 04:03 | 27.92216 | 113.25505 | 5967 ft | 253 kts | 342° |
| 2026-04-21 04:03 | 27.93926 | 113.25022 | 5765 ft | 253 kts | 342° |
| 2026-04-21 04:04 | 27.95624 | 113.24543 | 5482 ft | 249 kts | 343° |
| 2026-04-21 04:04 | 27.97303 | 113.24070 | 5190 ft | 247 kts | 343° |
| 2026-04-21 04:04 | 27.98964 | 113.23595 | 4876 ft | 247 kts | 344° |
| 2026-04-21 04:04 | 28.00687 | 113.23379 | 4514 ft | 250 kts | 359° |
| 2026-04-21 04:05 | 28.02391 | 113.23367 | 4138 ft | 247 kts | 358° |
| 2026-04-21 04:05 | 28.04128 | 113.23267 | 3781 ft | 253 kts | 357° |
| 2026-04-21 04:05 | 28.05889 | 113.23159 | 3434 ft | 251 kts | 359° |
| 2026-04-21 04:05 | 28.07602 | 113.23056 | 3052 ft | 243 kts | 359° |
| 2026-04-21 04:06 | 28.09259 | 113.22953 | 2722 ft | 235 kts | 358° |
| 2026-04-21 04:06 | 28.10855 | 113.22875 | 2463 ft | 222 kts | 359° |
| 2026-04-21 04:06 | 28.12363 | 113.22788 | 1964 ft | 220 kts | 356° |
| 2026-04-21 04:06 | 28.13882 | 113.22687 | 1549 ft | 217 kts | 355° |
| 2026-04-21 04:07 | 28.15373 | 113.22586 | 1127 ft | 212 kts | 355° |
| 2026-04-21 04:07 | 28.16852 | 113.22483 | 801 ft | 218 kts | 356° |
| 2026-04-21 04:07 | 28.18527 | 113.22375 | 944 ft | 239 kts | 355° |
| 2026-04-21 04:07 | 28.20070 | 113.22286 | 1097 ft | 205 kts | 356° |
| 2026-04-21 04:08 | 28.21412 | 113.22212 | 1296 ft | 188 kts | 355° |
| 2026-04-21 04:08 | 28.22724 | 113.22082 | 1420 ft | 192 kts | 356° |
| 2026-04-21 04:08 | 28.24023 | 113.22475 | 1499 ft | 199 kts | 36° |
| 2026-04-21 04:08 | 28.24859 | 113.23727 | 1723 ft | 205 kts | 73° |
| 2026-04-21 04:09 | 28.24862 | 113.25318 | 1912 ft | 208 kts | 108° |
| 2026-04-21 04:09 | 28.24122 | 113.26711 | 2133 ft | 205 kts | 129° |
| 2026-04-21 04:09 | 28.23229 | 113.27968 | 2412 ft | 207 kts | 130° |
| 2026-04-21 04:09 | 28.22290 | 113.29224 | 2732 ft | 208 kts | 130° |
| 2026-04-21 04:10 | 28.21255 | 113.30357 | 3120 ft | 209 kts | 149° |
| 2026-04-21 04:10 | 28.19847 | 113.30873 | 3388 ft | 219 kts | 165° |
| 2026-04-21 04:10 | 28.18358 | 113.31253 | 3385 ft | 214 kts | 170° |
| 2026-04-21 04:10 | 28.16874 | 113.31324 | 3380 ft | 206 kts | 176° |
| 2026-04-21 04:11 | 28.15473 | 113.31363 | 3384 ft | 201 kts | 176° |
| 2026-04-21 04:11 | 28.14076 | 113.31410 | 3386 ft | 200 kts | 175° |
| 2026-04-21 04:11 | 28.12686 | 113.31454 | 3391 ft | 199 kts | 176° |
| 2026-04-21 04:11 | 28.11316 | 113.31493 | 3394 ft | 199 kts | 175° |
| 2026-04-21 04:12 | 28.09930 | 113.31536 | 3331 ft | 199 kts | 175° |
| 2026-04-21 04:12 | 28.08540 | 113.31575 | 3211 ft | 199 kts | 175° |
| 2026-04-21 04:12 | 28.07165 | 113.31609 | 3096 ft | 195 kts | 177° |
| 2026-04-21 04:12 | 28.05867 | 113.31262 | 3019 ft | 195 kts | 209° |
| 2026-04-21 04:13 | 28.04784 | 113.30286 | 2980 ft | 202 kts | 216° |
| 2026-04-21 04:13 | 28.03697 | 113.29274 | 2977 ft | 200 kts | 216° |
| 2026-04-21 04:13 | 28.02629 | 113.28321 | 2986 ft | 197 kts | 220° |
| 2026-04-21 04:13 | 28.01981 | 113.26951 | 3003 ft | 203 kts | 258° |
| 2026-04-21 04:14 | 28.02047 | 113.25372 | 2968 ft | 205 kts | 283° |
| 2026-04-21 04:14 | 28.02774 | 113.23998 | 2851 ft | 206 kts | 319° |
| 2026-04-21 04:14 | 28.04053 | 113.23375 | 2786 ft | 201 kts | 358° |
| 2026-04-21 04:14 | 28.05443 | 113.23470 | 2641 ft | 200 kts | 4° |
| 2026-04-21 04:15 | 28.06812 | 113.23483 | 2379 ft | 189 kts | 360° |
| 2026-04-21 04:15 | 28.08054 | 113.23414 | 2104 ft | 174 kts | 355° |
| 2026-04-21 04:15 | 28.09178 | 113.23278 | 1894 ft | 154 kts | 352° |
| 2026-04-21 04:15 | 28.10233 | 113.23145 | 1723 ft | 153 kts | 350° |
| 2026-04-21 04:16 | 28.11279 | 113.23010 | 1476 ft | 150 kts | 356° |
| 2026-04-21 04:16 | 28.12331 | 113.22907 | 1310 ft | 154 kts | 350° |
| 2026-04-21 04:16 | 28.13398 | 113.22767 | 1091 ft | 151 kts | 351° |
| 2026-04-21 04:16 | 28.14439 | 113.22639 | 864 ft | 146 kts | 351° |
| 2026-04-21 04:17 | 28.15439 | 113.22517 | 671 ft | 146 kts | 352° |
| 2026-04-21 04:17 | 28.16456 | 113.22395 | 495 ft | 147 kts | 353° |
| 2026-04-21 04:17 | 28.17346 | 113.22319 | 271 ft | 41 kts | 118° |